sensor_id;sensor_type;location;lat;lon;timestamp;pressure;altitude;pressure_sealevel;temperature;humidity
48386;BME280;34644;47.964;7.982;2023-01-10T00:05:43;96454.69;;;15.47;70.97
48386;BME280;34644;47.964;7.982;2023-01-10T00:12:45;96461.06;;;15.46;70.70
48386;BME280;34644;47.964;7.982;2023-01-10T00:20:04;96468.25;;;15.45;70.87
48386;BME280;34644;47.964;7.982;2023-01-10T00:27:04;96479.91;;;15.44;71.06
48386;BME280;34644;47.964;7.982;2023-01-10T00:34:04;96498.50;;;15.44;71.02
48386;BME280;34644;47.964;7.982;2023-01-10T00:41:06;96511.00;;;15.44;70.96
48386;BME280;34644;47.964;7.982;2023-01-10T00:48:27;96545.78;;;15.42;70.83
48386;BME280;34644;47.964;7.982;2023-01-10T00:55:27;96557.47;;;15.41;70.85
48386;BME280;34644;47.964;7.982;2023-01-10T01:02:28;96582.16;;;15.42;70.84
48386;BME280;34644;47.964;7.982;2023-01-10T01:09:28;96595.69;;;15.40;70.90
48386;BME280;34644;47.964;7.982;2023-01-10T01:16:29;96613.50;;;15.40;70.85
48386;BME280;34644;47.964;7.982;2023-01-10T01:23:29;96638.19;;;15.40;70.96
48386;BME280;34644;47.964;7.982;2023-01-10T01:30:29;96654.13;;;15.40;70.93
48386;BME280;34644;47.964;7.982;2023-01-10T01:37:30;96666.88;;;15.38;70.93
48386;BME280;34644;47.964;7.982;2023-01-10T01:44:31;96678.56;;;15.37;71.04
48386;BME280;34644;47.964;7.982;2023-01-10T01:51:32;96697.16;;;15.37;70.97
48386;BME280;34644;47.964;7.982;2023-01-10T01:58:38;96726.38;;;15.37;70.95
48386;BME280;34644;47.964;7.982;2023-01-10T02:05:40;96733.78;;;15.35;71.03
48386;BME280;34644;47.964;7.982;2023-01-10T02:12:42;96764.59;;;15.36;71.01
48386;BME280;34644;47.964;7.982;2023-01-10T02:27:01;96788.75;;;15.34;70.82
48386;BME280;34644;47.964;7.982;2023-01-10T02:48:09;96820.09;;;15.37;70.89
48386;BME280;34644;47.964;7.982;2023-01-10T02:55:09;96825.69;;;15.41;70.91
48386;BME280;34644;47.964;7.982;2023-01-10T03:09:32;96832.34;;;15.44;70.92
48386;BME280;34644;47.964;7.982;2023-01-10T03:16:34;96841.38;;;15.43;70.73
48386;BME280;34644;47.964;7.982;2023-01-10T03:23:36;96858.09;;;15.43;70.83
48386;BME280;34644;47.964;7.982;2023-01-10T03:37:45;96884.66;;;15.43;70.94
48386;BME280;34644;47.964;7.982;2023-01-10T03:45:02;96891.81;;;15.43;70.87
48386;BME280;34644;47.964;7.982;2023-01-10T03:52:06;96916.53;;;15.43;70.85
48386;BME280;34644;47.964;7.982;2023-01-10T03:59:08;96940.44;;;15.43;70.96
48386;BME280;34644;47.964;7.982;2023-01-10T04:06:08;96922.09;;;15.42;70.96
48386;BME280;34644;47.964;7.982;2023-01-10T04:13:08;96939.09;;;15.41;70.96
48386;BME280;34644;47.964;7.982;2023-01-10T04:20:08;96948.63;;;15.36;71.05
48386;BME280;34644;47.964;7.982;2023-01-10T04:27:09;96942.53;;;15.36;71.04
48386;BME280;34644;47.964;7.982;2023-01-10T04:34:09;96955.00;;;15.35;70.91
48386;BME280;34644;47.964;7.982;2023-01-10T04:41:09;96962.97;;;15.35;71.12
48386;BME280;34644;47.964;7.982;2023-01-10T04:48:10;96974.53;;;15.62;70.63
48386;BME280;34644;47.964;7.982;2023-01-10T04:55:10;96986.72;;;15.95;69.91
48386;BME280;34644;47.964;7.982;2023-01-10T05:02:10;96999.00;;;16.06;69.50
48386;BME280;34644;47.964;7.982;2023-01-10T05:09:10;97001.44;;;16.13;69.17
48386;BME280;34644;47.964;7.982;2023-01-10T05:16:11;97015.25;;;16.10;69.08
48386;BME280;34644;47.964;7.982;2023-01-10T05:23:11;97028.03;;;16.13;69.06
48386;BME280;34644;47.964;7.982;2023-01-10T05:30:11;97037.31;;;16.10;69.23
48386;BME280;34644;47.964;7.982;2023-01-10T05:37:12;97040.47;;;16.07;69.75
48386;BME280;34644;47.964;7.982;2023-01-10T05:44:12;97039.69;;;16.07;69.78
48386;BME280;34644;47.964;7.982;2023-01-10T05:51:12;97053.16;;;15.95;69.77
48386;BME280;34644;47.964;7.982;2023-01-10T05:58:13;97057.69;;;15.95;69.68
48386;BME280;34644;47.964;7.982;2023-01-10T06:05:13;97059.00;;;15.92;69.53
48386;BME280;34644;47.964;7.982;2023-01-10T06:12:14;97066.72;;;15.94;69.60
48386;BME280;34644;47.964;7.982;2023-01-10T06:19:14;97078.44;;;15.93;69.79
48386;BME280;34644;47.964;7.982;2023-01-10T06:26:14;97081.28;;;15.86;70.10
48386;BME280;34644;47.964;7.982;2023-01-10T06:33:15;97101.72;;;15.80;70.40
48386;BME280;34644;47.964;7.982;2023-01-10T06:40:15;97129.00;;;15.70;70.41
48386;BME280;34644;47.964;7.982;2023-01-10T06:47:15;97105.28;;;15.64;70.41
48386;BME280;34644;47.964;7.982;2023-01-10T06:54:15;97138.97;;;15.58;70.56
48386;BME280;34644;47.964;7.982;2023-01-10T07:01:17;97163.94;;;15.57;70.57
48386;BME280;34644;47.964;7.982;2023-01-10T07:08:17;97171.66;;;15.59;70.54
48386;BME280;34644;47.964;7.982;2023-01-10T07:15:18;97180.47;;;15.91;69.45
48386;BME280;34644;47.964;7.982;2023-01-10T07:22:18;97186.91;;;15.96;69.21
48386;BME280;34644;47.964;7.982;2023-01-10T07:29:18;97187.91;;;15.89;69.27
48386;BME280;34644;47.964;7.982;2023-01-10T07:36:19;97197.44;;;15.85;69.32
48386;BME280;34644;47.964;7.982;2023-01-10T07:43:19;97197.94;;;15.82;69.33
48386;BME280;34644;47.964;7.982;2023-01-10T07:50:19;97216.25;;;15.79;69.40
48386;BME280;34644;47.964;7.982;2023-01-10T07:57:20;97245.16;;;15.75;69.55
48386;BME280;34644;47.964;7.982;2023-01-10T08:04:20;97252.78;;;15.66;69.85
48386;BME280;34644;47.964;7.982;2023-01-10T08:11:20;97257.78;;;15.63;70.00
48386;BME280;34644;47.964;7.982;2023-01-10T08:18:21;97271.03;;;15.58;70.19
48386;BME280;34644;47.964;7.982;2023-01-10T08:25:21;97273.16;;;15.61;70.13
48386;BME280;34644;47.964;7.982;2023-01-10T08:32:22;97266.69;;;15.73;69.58
48386;BME280;34644;47.964;7.982;2023-01-10T08:39:22;97284.97;;;16.24;67.82
48386;BME280;34644;47.964;7.982;2023-01-10T08:46:25;97290.53;;;16.55;66.77
48386;BME280;34644;47.964;7.982;2023-01-10T08:53:25;97300.00;;;16.78;66.04
48386;BME280;34644;47.964;7.982;2023-01-10T09:00:30;97295.44;;;16.69;66.61
48386;BME280;34644;47.964;7.982;2023-01-10T09:07:31;97303.56;;;17.37;64.25
48386;BME280;34644;47.964;7.982;2023-01-10T09:14:31;97324.25;;;17.20;64.82
48386;BME280;34644;47.964;7.982;2023-01-10T09:21:31;97328.72;;;17.09;65.45
48386;BME280;34644;47.964;7.982;2023-01-10T09:28:32;97333.66;;;16.90;66.13
48386;BME280;34644;47.964;7.982;2023-01-10T09:35:34;97343.25;;;16.58;67.28
48386;BME280;34644;47.964;7.982;2023-01-10T09:49:44;97344.91;;;16.97;66.40
48386;BME280;34644;47.964;7.982;2023-01-10T09:56:47;97350.56;;;17.11;66.14
48386;BME280;34644;47.964;7.982;2023-01-10T10:25:17;97357.44;;;17.44;65.81
48386;BME280;34644;47.964;7.982;2023-01-10T10:32:37;97369.50;;;17.62;65.38
48386;BME280;34644;47.964;7.982;2023-01-10T10:39:44;97371.13;;;17.79;65.24
48386;BME280;34644;47.964;7.982;2023-01-10T10:46:46;97360.25;;;17.85;65.17
48386;BME280;34644;47.964;7.982;2023-01-10T10:53:46;97348.84;;;18.00;64.88
48386;BME280;34644;47.964;7.982;2023-01-10T11:00:47;97347.28;;;18.15;64.77
48386;BME280;34644;47.964;7.982;2023-01-10T11:07:47;97354.22;;;18.21;64.57
48386;BME280;34644;47.964;7.982;2023-01-10T11:14:50;97361.03;;;17.81;66.08
48386;BME280;34644;47.964;7.982;2023-01-10T11:22:00;97359.31;;;17.54;66.87
48386;BME280;34644;47.964;7.982;2023-01-10T11:29:15;97365.34;;;17.34;67.45
48386;BME280;34644;47.964;7.982;2023-01-10T11:36:16;97347.69;;;17.17;67.83
48386;BME280;34644;47.964;7.982;2023-01-10T11:43:36;97340.34;;;17.40;67.12
48386;BME280;34644;47.964;7.982;2023-01-10T11:50:38;97335.88;;;17.56;66.30
48386;BME280;34644;47.964;7.982;2023-01-10T11:57:38;97332.06;;;17.36;66.95
48386;BME280;34644;47.964;7.982;2023-01-10T12:04:39;97321.06;;;17.17;67.42
48386;BME280;34644;47.964;7.982;2023-01-10T12:11:41;97319.13;;;17.08;67.68
48386;BME280;34644;47.964;7.982;2023-01-10T12:18:41;97305.50;;;16.99;67.83
48386;BME280;34644;47.964;7.982;2023-01-10T12:25:42;97299.25;;;17.26;67.10
48386;BME280;34644;47.964;7.982;2023-01-10T12:32:45;97293.09;;;17.20;66.97
48386;BME280;34644;47.964;7.982;2023-01-10T12:39:54;97276.81;;;17.11;67.20
48386;BME280;34644;47.964;7.982;2023-01-10T12:54:11;97268.59;;;17.23;66.91
48386;BME280;34644;47.964;7.982;2023-01-10T13:01:15;97263.81;;;17.25;66.97
48386;BME280;34644;47.964;7.982;2023-01-10T13:08:17;97251.56;;;17.29;66.79
48386;BME280;34644;47.964;7.982;2023-01-10T13:15:22;97245.97;;;17.26;67.04
48386;BME280;34644;47.964;7.982;2023-01-10T13:22:23;97237.72;;;17.27;67.18
48386;BME280;34644;47.964;7.982;2023-01-10T13:29:28;97228.09;;;17.16;67.54
48386;BME280;34644;47.964;7.982;2023-01-10T13:36:30;97220.63;;;17.13;67.84
48386;BME280;34644;47.964;7.982;2023-01-10T13:50:44;97210.94;;;16.96;68.41
48386;BME280;34644;47.964;7.982;2023-01-10T14:04:51;97200.47;;;16.79;68.82
48386;BME280;34644;47.964;7.982;2023-01-10T14:18:53;97204.69;;;16.75;68.96
48386;BME280;34644;47.964;7.982;2023-01-10T14:25:54;97206.53;;;16.70;68.93
48386;BME280;34644;47.964;7.982;2023-01-10T14:32:56;97206.50;;;16.64;69.37
48386;BME280;34644;47.964;7.982;2023-01-10T14:39:59;97201.16;;;16.59;69.19
48386;BME280;34644;47.964;7.982;2023-01-10T14:47:00;97194.47;;;16.57;69.33
48386;BME280;34644;47.964;7.982;2023-01-10T14:54:10;97189.94;;;16.52;69.37
48386;BME280;34644;47.964;7.982;2023-01-10T15:01:10;97177.97;;;16.50;69.33
48386;BME280;34644;47.964;7.982;2023-01-10T15:08:16;97168.09;;;16.45;69.59
48386;BME280;34644;47.964;7.982;2023-01-10T15:15:20;97147.56;;;16.40;69.57
48386;BME280;34644;47.964;7.982;2023-01-10T15:22:27;97142.50;;;16.34;69.70
48386;BME280;34644;47.964;7.982;2023-01-10T15:29:28;97135.56;;;16.33;69.78
48386;BME280;34644;47.964;7.982;2023-01-10T15:36:28;97124.06;;;16.27;69.96
48386;BME280;34644;47.964;7.982;2023-01-10T15:43:29;97123.00;;;16.23;70.03
48386;BME280;34644;47.964;7.982;2023-01-10T15:50:31;97130.72;;;16.19;70.17
48386;BME280;34644;47.964;7.982;2023-01-10T15:57:32;97123.50;;;16.15;70.24
48386;BME280;34644;47.964;7.982;2023-01-10T16:04:35;97115.22;;;16.11;70.37
48386;BME280;34644;47.964;7.982;2023-01-10T16:11:37;97112.00;;;16.09;70.32
48386;BME280;34644;47.964;7.982;2023-01-10T16:18:56;97132.50;;;16.08;70.24
48386;BME280;34644;47.964;7.982;2023-01-10T16:25:58;97127.69;;;16.05;70.30
48386;BME280;34644;47.964;7.982;2023-01-10T16:32:59;97122.38;;;16.05;70.20
48386;BME280;34644;47.964;7.982;2023-01-10T16:40:06;97117.91;;;16.16;69.71
48386;BME280;34644;47.964;7.982;2023-01-10T16:47:10;97114.91;;;16.50;68.62
48386;BME280;34644;47.964;7.982;2023-01-10T16:54:17;97108.63;;;16.72;67.54
48386;BME280;34644;47.964;7.982;2023-01-10T17:01:21;97091.88;;;16.81;67.19
48386;BME280;34644;47.964;7.982;2023-01-10T17:08:23;97104.94;;;16.83;67.24
48386;BME280;34644;47.964;7.982;2023-01-10T17:15:26;97090.78;;;16.77;67.59
48386;BME280;34644;47.964;7.982;2023-01-10T17:22:27;97092.66;;;16.72;67.77
48386;BME280;34644;47.964;7.982;2023-01-10T17:29:29;97075.06;;;16.66;67.78
48386;BME280;34644;47.964;7.982;2023-01-10T17:36:29;97084.09;;;16.59;68.03
48386;BME280;34644;47.964;7.982;2023-01-10T17:43:31;97081.91;;;16.51;68.29
48386;BME280;34644;47.964;7.982;2023-01-10T17:50:31;97079.25;;;16.51;68.23
48386;BME280;34644;47.964;7.982;2023-01-10T17:57:32;97064.06;;;16.41;68.50
48386;BME280;34644;47.964;7.982;2023-01-10T18:04:36;97054.47;;;16.40;68.59
48386;BME280;34644;47.964;7.982;2023-01-10T18:11:37;97053.63;;;16.35;68.57
48386;BME280;34644;47.964;7.982;2023-01-10T18:18:37;97067.44;;;16.32;68.67
48386;BME280;34644;47.964;7.982;2023-01-10T18:25:38;97064.78;;;16.26;68.99
48386;BME280;34644;47.964;7.982;2023-01-10T18:32:38;97051.50;;;16.32;68.71
48386;BME280;34644;47.964;7.982;2023-01-10T18:39:38;97054.16;;;16.32;68.86
48386;BME280;34644;47.964;7.982;2023-01-10T18:46:38;97059.72;;;16.30;69.14
48386;BME280;34644;47.964;7.982;2023-01-10T18:53:39;97056.25;;;16.19;69.67
48386;BME280;34644;47.964;7.982;2023-01-10T19:00:40;97054.56;;;16.08;70.06
48386;BME280;34644;47.964;7.982;2023-01-10T19:07:41;97048.19;;;16.04;70.23
48386;BME280;34644;47.964;7.982;2023-01-10T19:14:41;97033.28;;;16.03;70.18
48386;BME280;34644;47.964;7.982;2023-01-10T19:21:41;97031.13;;;16.00;70.12
48386;BME280;34644;47.964;7.982;2023-01-10T19:28:42;97024.22;;;15.99;70.03
48386;BME280;34644;47.964;7.982;2023-01-10T19:35:42;97007.72;;;15.97;70.12
48386;BME280;34644;47.964;7.982;2023-01-10T19:42:43;96992.03;;;15.95;70.18
48386;BME280;34644;47.964;7.982;2023-01-10T19:49:43;96980.88;;;15.93;70.13
48386;BME280;34644;47.964;7.982;2023-01-10T19:56:43;96980.59;;;15.89;70.02
48386;BME280;34644;47.964;7.982;2023-01-10T20:03:46;96985.09;;;15.89;70.15
48386;BME280;34644;47.964;7.982;2023-01-10T20:10:46;96979.50;;;15.85;70.03
48386;BME280;34644;47.964;7.982;2023-01-10T20:17:47;96969.91;;;15.84;70.11
48386;BME280;34644;47.964;7.982;2023-01-10T20:24:47;96969.38;;;15.82;70.32
48386;BME280;34644;47.964;7.982;2023-01-10T20:31:47;96960.09;;;15.80;70.20
48386;BME280;34644;47.964;7.982;2023-01-10T20:38:51;96960.09;;;15.80;70.45
48386;BME280;34644;47.964;7.982;2023-01-10T20:45:52;96978.94;;;15.78;70.38
48386;BME280;34644;47.964;7.982;2023-01-10T20:52:52;96967.72;;;15.76;70.26
48386;BME280;34644;47.964;7.982;2023-01-10T20:59:52;96947.53;;;15.75;70.24
48386;BME280;34644;47.964;7.982;2023-01-10T21:06:52;96940.59;;;15.74;70.31
48386;BME280;34644;47.964;7.982;2023-01-10T21:13:53;96956.03;;;15.72;70.50
48386;BME280;34644;47.964;7.982;2023-01-10T21:20:53;96957.06;;;15.71;70.41
48386;BME280;34644;47.964;7.982;2023-01-10T21:27:54;96963.44;;;15.70;70.33
48386;BME280;34644;47.964;7.982;2023-01-10T21:34:54;96963.69;;;15.68;70.52
48386;BME280;34644;47.964;7.982;2023-01-10T21:41:54;96946.16;;;15.67;70.45
48386;BME280;34644;47.964;7.982;2023-01-10T21:49:13;96948.00;;;15.67;70.62
48386;BME280;34644;47.964;7.982;2023-01-10T21:56:14;96942.94;;;15.65;70.48
48386;BME280;34644;47.964;7.982;2023-01-10T22:03:14;96940.53;;;15.64;70.52
48386;BME280;34644;47.964;7.982;2023-01-10T22:10:14;96937.09;;;15.63;70.50
48386;BME280;34644;47.964;7.982;2023-01-10T22:17:15;96936.31;;;15.63;70.65
48386;BME280;34644;47.964;7.982;2023-01-10T22:24:15;96917.97;;;15.61;70.66
48386;BME280;34644;47.964;7.982;2023-01-10T22:31:16;96923.53;;;15.60;70.85
48386;BME280;34644;47.964;7.982;2023-01-10T22:38:16;96918.22;;;15.60;70.80
48386;BME280;34644;47.964;7.982;2023-01-10T22:45:16;96916.63;;;15.59;70.78
48386;BME280;34644;47.964;7.982;2023-01-10T22:52:17;96900.66;;;15.59;70.88
48386;BME280;34644;47.964;7.982;2023-01-10T22:59:17;96912.91;;;15.60;70.96
48386;BME280;34644;47.964;7.982;2023-01-10T23:06:17;96912.38;;;15.58;70.91
48386;BME280;34644;47.964;7.982;2023-01-10T23:13:18;96908.09;;;15.56;70.90
48386;BME280;34644;47.964;7.982;2023-01-10T23:20:19;96897.47;;;15.56;71.06
48386;BME280;34644;47.964;7.982;2023-01-10T23:27:19;96895.88;;;15.55;71.09
48386;BME280;34644;47.964;7.982;2023-01-10T23:34:19;96881.00;;;15.54;71.00
48386;BME280;34644;47.964;7.982;2023-01-10T23:41:20;96885.50;;;15.54;71.13
48386;BME280;34644;47.964;7.982;2023-01-10T23:48:20;96879.41;;;15.53;71.05
48386;BME280;34644;47.964;7.982;2023-01-10T23:55:20;96871.44;;;15.53;71.17
